createdAt,value
2022-08-11T00:02:30.434Z,21.50
2022-08-11T00:05:05.349Z,21.50
2022-08-11T00:07:35.431Z,21.50
2022-08-11T00:10:03.762Z,21.40
2022-08-11T00:12:32.397Z,21.40
2022-08-11T00:15:02.292Z,21.40
2022-08-11T00:17:33.703Z,21.30
2022-08-11T00:20:12.232Z,21.30
2022-08-11T00:22:47.994Z,21.30
2022-08-11T00:25:18.144Z,21.20
2022-08-11T00:27:47.337Z,21.20
2022-08-11T00:30:16.917Z,21.20
2022-08-11T00:32:47.403Z,21.20
2022-08-11T00:35:50.820Z,21.20
2022-08-11T00:38:08.331Z,21.20
2022-08-11T00:40:43.686Z,21.20
2022-08-11T00:43:21.174Z,21.20
2022-08-11T00:46:09.328Z,21.10
2022-08-11T00:48:46.294Z,21.10
2022-08-11T00:51:25.370Z,21.10
2022-08-11T00:54:09.551Z,21.10
2022-08-11T00:57:35.997Z,21.20
2022-08-11T01:00:06.934Z,21.10
2022-08-11T01:02:48.183Z,21.20
2022-08-11T01:05:35.369Z,21.10
2022-08-11T01:08:35.711Z,21.00
2022-08-11T01:11:22.880Z,21.10
2022-08-11T01:14:34.067Z,21.20
2022-08-11T01:17:46.641Z,21.10
2022-08-11T01:20:49.782Z,20.90
2022-08-11T01:23:57.928Z,20.60
2022-08-11T01:27:19.325Z,20.50
2022-08-11T01:30:11.263Z,20.70
2022-08-11T01:33:28.426Z,20.90
2022-08-11T01:36:56.991Z,20.60
2022-08-11T01:40:13.394Z,20.60
2022-08-11T01:43:50.189Z,20.40
2022-08-11T01:46:25.942Z,20.30
2022-08-11T01:50:08.853Z,20.10
2022-08-11T01:52:12.937Z,20.20
2022-08-11T01:54:46.328Z,20.30
2022-08-11T01:57:30.287Z,20.10
2022-08-11T02:00:08.251Z,20.10
2022-08-11T02:02:54.035Z,20.10
2022-08-11T02:06:00.333Z,20.10
2022-08-11T02:08:50.468Z,20.10
2022-08-11T02:11:31.647Z,19.90
2022-08-11T02:14:14.342Z,19.80
2022-08-11T02:16:53.630Z,19.80
2022-08-11T02:19:52.435Z,19.80
2022-08-11T02:22:47.943Z,19.50
2022-08-11T02:25:28.486Z,19.50
2022-08-11T02:28:04.134Z,19.40
2022-08-11T02:30:37.922Z,19.20
2022-08-11T02:33:24.142Z,19.20
2022-08-11T02:36:04.590Z,19.10
2022-08-11T02:38:43.413Z,19.00
2022-08-11T02:41:35.234Z,18.80
2022-08-11T02:44:29.575Z,18.90
2022-08-11T02:47:05.428Z,18.90
2022-08-11T02:50:02.759Z,18.90
2022-08-11T02:52:43.355Z,18.60
2022-08-11T02:55:44.550Z,18.60
2022-08-11T02:58:35.527Z,18.60
2022-08-11T03:01:13.063Z,18.50
2022-08-11T03:03:52.216Z,18.30
2022-08-11T03:06:32.198Z,18.30
2022-08-11T03:09:07.389Z,18.30
2022-08-11T03:12:11.483Z,18.10
2022-08-11T03:15:06.921Z,18.00
2022-08-11T03:17:42.025Z,18.10
2022-08-11T03:20:37.996Z,18.10
2022-08-11T03:23:19.934Z,18.00
2022-08-11T03:25:52.676Z,18.00
2022-08-11T03:28:27.335Z,17.80
2022-08-11T03:31:11.356Z,17.90
2022-08-11T03:34:08.144Z,17.70
2022-08-11T03:37:16.030Z,17.70
2022-08-11T03:39:56.743Z,17.70
2022-08-11T03:42:33.328Z,17.60
2022-08-11T03:45:08.304Z,17.60
2022-08-11T03:47:52.291Z,17.50
2022-08-11T03:50:35.409Z,17.40
2022-08-11T03:53:14.706Z,17.30
2022-08-11T03:56:11.455Z,17.40
2022-08-11T03:59:07.505Z,17.20
2022-08-11T04:02:10.185Z,17.10
2022-08-11T04:05:25.291Z,17.10
2022-08-11T04:08:34.139Z,17.20
2022-08-11T04:11:41.983Z,17.20
2022-08-11T04:15:09.622Z,17.10
2022-08-11T04:17:57.685Z,17.20
2022-08-11T04:21:12.903Z,17.30
2022-08-11T04:24:37.066Z,17.20
2022-08-11T04:27:14.404Z,17.10
2022-08-11T04:30:04.893Z,17.10
2022-08-11T04:32:49.835Z,17.20
2022-08-11T04:35:33.809Z,17.20
2022-08-11T04:38:27.118Z,17.10
2022-08-11T04:41:21.805Z,17.00
2022-08-11T04:44:20.288Z,17.10
2022-08-11T04:47:08.966Z,17.10
2022-08-11T04:50:14.075Z,17.30
2022-08-11T04:53:40.528Z,17.30
2022-08-11T04:56:32.982Z,17.30
2022-08-11T04:59:46.728Z,17.40
2022-08-11T05:02:51.712Z,17.50
2022-08-11T05:05:34.253Z,17.50
2022-08-11T05:08:19.489Z,17.60
2022-08-11T05:11:03.995Z,17.70
2022-08-11T05:13:52.979Z,17.80
2022-08-11T05:16:46.245Z,18.00
2022-08-11T05:19:35.410Z,18.00
2022-08-11T05:22:24.565Z,17.90
2022-08-11T05:26:42.672Z,18.20
2022-08-11T05:28:27.542Z,18.30
2022-08-11T05:31:16.344Z,18.40
2022-08-11T05:34:06.572Z,18.60
2022-08-11T05:36:42.169Z,18.80
2022-08-11T05:39:36.895Z,18.70
2022-08-11T05:42:30.101Z,18.80
2022-08-11T05:45:20.050Z,18.80
2022-08-11T05:48:09.482Z,19.00
2022-08-11T05:50:56.026Z,19.00
2022-08-11T05:53:43.693Z,19.10
2022-08-11T05:56:17.554Z,19.20
2022-08-11T05:58:49.984Z,19.20
2022-08-11T06:01:24.589Z,19.20
2022-08-11T06:04:12.579Z,19.40
2022-08-11T06:06:47.322Z,19.50
2022-08-11T06:09:15.659Z,19.60
2022-08-11T06:11:45.106Z,19.70
2022-08-11T06:14:15.522Z,19.80
2022-08-11T06:16:44.563Z,20.00
2022-08-11T06:19:14.262Z,20.00
2022-08-11T06:21:47.387Z,20.20
2022-08-11T06:24:18.055Z,20.30
2022-08-11T06:27:11.145Z,20.40
2022-08-11T06:29:54.535Z,20.50
2022-08-11T06:32:25.887Z,20.60
2022-08-11T06:35:09.818Z,20.70
2022-08-11T06:37:48.581Z,20.90
2022-08-11T06:40:30.061Z,21.00
2022-08-11T06:43:02.194Z,21.20
2022-08-11T06:45:33.365Z,21.30
2022-08-11T06:48:03.024Z,21.40
2022-08-11T06:50:50.757Z,21.50
2022-08-11T06:53:20.903Z,21.60
2022-08-11T06:56:08.618Z,21.70
2022-08-11T06:58:57.091Z,21.70
2022-08-11T07:01:37.894Z,21.70
2022-08-11T07:04:09.195Z,22.10
2022-08-11T07:07:09.894Z,22.20
2022-08-11T07:10:23.772Z,22.40
2022-08-11T07:13:44.559Z,22.60
2022-08-11T07:16:12.334Z,22.80
2022-08-11T07:19:00.738Z,23.00
2022-08-11T07:22:00.988Z,23.10
2022-08-11T07:25:01.294Z,23.40
2022-08-11T07:27:53.879Z,23.50
2022-08-11T07:30:21.766Z,23.60
2022-08-11T07:32:52.961Z,23.60
2022-08-11T07:35:25.614Z,23.80
2022-08-11T07:38:02.136Z,23.90
2022-08-11T07:40:33.655Z,24.10
2022-08-11T07:43:02.094Z,24.10
2022-08-11T07:45:48.867Z,24.40
2022-08-11T07:48:35.331Z,24.50
2022-08-11T07:51:21.909Z,24.70
2022-08-11T07:53:58.288Z,24.90
2022-08-11T07:56:54.830Z,25.00
2022-08-11T07:59:59.974Z,25.10
2022-08-11T08:02:49.740Z,25.20
2022-08-11T08:05:37.154Z,25.50
2022-08-11T08:08:23.567Z,25.50
2022-08-11T08:11:09.694Z,25.70
2022-08-11T08:13:56.929Z,25.90
2022-08-11T08:16:42.917Z,26.00
2022-08-11T08:19:13.455Z,26.30
2022-08-11T08:21:42.178Z,26.30
2022-08-11T08:24:13.675Z,26.40
2022-08-11T08:27:00.945Z,26.60
2022-08-11T08:29:52.323Z,26.80
2022-08-11T08:32:21.723Z,26.90
2022-08-11T08:34:51.762Z,27.10
2022-08-11T08:37:46.154Z,27.10
2022-08-11T08:40:11.034Z,27.00
2022-08-11T08:42:45.293Z,27.20
2022-08-11T08:45:18.339Z,27.30
2022-08-11T08:47:53.054Z,27.50
2022-08-11T08:50:46.834Z,27.40
2022-08-11T08:53:17.222Z,27.70
2022-08-11T08:55:47.191Z,27.80
2022-08-11T08:58:16.778Z,27.90
2022-08-11T09:00:47.819Z,28.10
2022-08-11T09:03:39.943Z,28.40
2022-08-11T09:06:03.574Z,28.30
2022-08-11T09:08:33.656Z,28.50
2022-08-11T09:11:20.190Z,28.60
2022-08-11T09:14:04.941Z,28.50
2022-08-11T09:16:36.476Z,28.50
2022-08-11T09:19:05.432Z,28.40
2022-08-11T09:21:46.278Z,28.40
2022-08-11T09:24:35.690Z,28.60
2022-08-11T09:27:07.478Z,29.00
2022-08-11T09:29:36.368Z,29.10
2022-08-11T09:32:07.105Z,29.20
2022-08-11T09:34:37.249Z,29.50
2022-08-11T09:37:28.540Z,29.50
2022-08-11T09:40:33.716Z,29.30
2022-08-11T09:43:23.623Z,29.40
2022-08-11T09:45:53.249Z,29.40
2022-08-11T09:48:24.603Z,29.70
2022-08-11T09:50:58.416Z,29.80
2022-08-11T09:53:37.121Z,30.00
2022-08-11T09:56:21.068Z,30.30
2022-08-11T09:58:49.304Z,30.20
2022-08-11T10:01:27.556Z,30.20
2022-08-11T10:04:01.427Z,30.20
2022-08-11T10:06:54.093Z,30.20
2022-08-11T10:09:25.067Z,30.40
2022-08-11T10:11:57.873Z,30.40
2022-08-11T10:14:45.182Z,30.60
2022-08-11T10:17:15.959Z,30.80
2022-08-11T10:20:03.927Z,30.60
2022-08-11T10:22:50.660Z,30.90
2022-08-11T10:25:36.203Z,30.90
2022-08-11T10:28:28.982Z,31.00
2022-08-11T10:31:13.593Z,31.10
2022-08-11T10:33:59.942Z,31.20
2022-08-11T10:36:31.059Z,31.10
2022-08-11T10:39:00.340Z,31.30
2022-08-11T10:42:06.613Z,31.50
2022-08-11T10:44:39.409Z,31.80
2022-08-11T10:47:25.521Z,31.70
2022-08-11T10:50:08.620Z,31.80
2022-08-11T10:52:56.674Z,31.60
2022-08-11T10:55:42.712Z,31.70
2022-08-11T10:58:28.823Z,31.80
2022-08-11T11:00:58.799Z,32.00
2022-08-11T11:03:27.622Z,31.90
2022-08-11T11:06:12.912Z,32.10
2022-08-11T11:08:58.746Z,32.10
2022-08-11T11:11:51.634Z,32.10
2022-08-11T11:14:46.176Z,32.30
2022-08-11T11:17:39.746Z,32.40
2022-08-11T11:20:09.192Z,32.40
2022-08-11T11:23:02.597Z,32.30
2022-08-11T11:25:44.875Z,32.20
2022-08-11T11:28:35.345Z,32.20
2022-08-11T11:31:15.610Z,32.50
2022-08-11T11:34:12.607Z,32.80
2022-08-11T11:36:48.422Z,32.90
2022-08-11T11:39:19.923Z,32.80
2022-08-11T11:41:50.801Z,32.90
2022-08-11T11:44:19.291Z,33.20
2022-08-11T11:46:47.946Z,33.20
2022-08-11T11:49:18.597Z,33.10
2022-08-11T11:51:50.215Z,33.30
2022-08-11T11:54:20.137Z,33.30
2022-08-11T11:56:51.221Z,33.40
2022-08-11T11:59:36.589Z,33.70
2022-08-11T12:02:07.576Z,33.70
2022-08-11T12:04:42.975Z,33.70
2022-08-11T12:07:25.697Z,33.80
2022-08-11T12:09:54.007Z,33.70
2022-08-11T12:12:41.487Z,33.90
2022-08-11T12:15:10.287Z,33.80
2022-08-11T12:17:39.732Z,33.90
2022-08-11T12:20:31.592Z,34.10
2022-08-11T12:23:16.362Z,34.00
2022-08-11T12:26:26.248Z,34.10
2022-08-11T12:28:52.739Z,34.20
2022-08-11T12:31:26.075Z,34.00
2022-08-11T12:33:56.037Z,34.20
2022-08-11T12:36:24.329Z,34.30
2022-08-11T12:38:53.561Z,34.30
2022-08-11T12:41:55.039Z,34.20
2022-08-11T12:44:45.475Z,34.10
2022-08-11T12:47:17.438Z,34.10
2022-08-11T12:50:05.637Z,34.10
2022-08-11T12:52:44.677Z,34.10
2022-08-11T12:55:37.429Z,34.20
2022-08-11T12:58:18.145Z,34.10
2022-08-11T13:01:05.963Z,34.10
2022-08-11T13:03:58.811Z,34.20
2022-08-11T13:06:27.206Z,34.20
2022-08-11T13:09:01.056Z,34.30
2022-08-11T13:11:56.955Z,34.30
2022-08-11T13:14:26.721Z,34.20
2022-08-11T13:17:14.189Z,34.30
2022-08-11T13:19:48.872Z,34.30
2022-08-11T13:22:19.477Z,34.50
2022-08-11T13:24:48.872Z,34.50
2022-08-11T13:27:19.095Z,34.60
2022-08-11T13:29:48.663Z,34.50
2022-08-11T13:32:19.346Z,34.40
2022-08-11T13:34:48.188Z,34.50
2022-08-11T13:37:16.894Z,34.40
2022-08-11T13:39:47.313Z,34.50
2022-08-11T13:42:20.192Z,34.60
2022-08-11T13:44:48.758Z,34.60
2022-08-11T13:47:18.929Z,34.70
2022-08-11T13:49:47.898Z,34.60
2022-08-11T13:52:17.512Z,34.70
2022-08-11T13:54:53.375Z,34.70
2022-08-11T13:58:07.619Z,34.80
2022-08-11T14:00:13.334Z,34.60
2022-08-11T14:02:56.685Z,34.80
2022-08-11T14:05:28.454Z,34.80
2022-08-11T14:08:00.299Z,34.80
2022-08-11T14:10:30.416Z,34.80
2022-08-11T14:13:41.685Z,34.60
2022-08-11T14:16:21.375Z,34.50
2022-08-11T14:18:55.293Z,34.60
2022-08-11T14:21:42.806Z,34.60
2022-08-11T14:24:13.046Z,34.80
2022-08-11T14:26:43.582Z,34.90
2022-08-11T14:29:14.254Z,34.90
2022-08-11T14:31:46.292Z,34.90
2022-08-11T14:34:19.938Z,34.70
2022-08-11T14:36:52.545Z,34.60
2022-08-11T14:39:23.860Z,34.50
2022-08-11T14:42:17.711Z,34.40
2022-08-11T14:45:16.645Z,34.30
2022-08-11T14:47:49.841Z,34.30
2022-08-11T14:50:23.952Z,34.20
2022-08-11T14:52:55.110Z,34.40
2022-08-11T14:55:43.447Z,34.40
2022-08-11T14:58:15.526Z,34.40
2022-08-11T15:00:45.029Z,34.40
2022-08-11T15:03:14.180Z,34.20
2022-08-11T15:05:56.616Z,34.50
2022-08-11T15:08:42.417Z,34.80
2022-08-11T15:11:32.209Z,34.60
2022-08-11T15:14:00.907Z,34.60
2022-08-11T15:16:47.137Z,34.70
2022-08-11T15:19:16.607Z,34.90
2022-08-11T15:22:03.451Z,34.90
2022-08-11T15:24:31.316Z,34.90
2022-08-11T15:27:19.150Z,34.80
2022-08-11T15:30:02.722Z,34.70
2022-08-11T15:32:49.929Z,34.60
2022-08-11T15:35:39.159Z,34.70
2022-08-11T15:38:14.932Z,34.90
2022-08-11T15:41:01.113Z,34.80
2022-08-11T15:43:51.227Z,34.70
2022-08-11T15:46:24.293Z,35.00
2022-08-11T15:48:57.557Z,35.00
2022-08-11T15:51:31.841Z,34.70
2022-08-11T15:54:08.932Z,34.70
2022-08-11T15:56:40.751Z,34.80
2022-08-11T15:59:41.700Z,34.80
2022-08-11T16:02:31.772Z,34.80
2022-08-11T16:05:02.112Z,34.70
2022-08-11T16:07:37.707Z,34.80
2022-08-11T16:10:18.691Z,34.70
2022-08-11T16:13:21.262Z,34.80
2022-08-11T16:16:08.833Z,34.80
2022-08-11T16:18:42.299Z,34.60
2022-08-11T16:21:26.238Z,34.50
2022-08-11T16:24:05.641Z,34.50
2022-08-11T16:27:10.605Z,34.60
2022-08-11T16:29:28.069Z,34.50
2022-08-11T16:32:15.027Z,34.40
2022-08-11T16:35:02.335Z,34.30
2022-08-11T16:37:51.864Z,34.20
2022-08-11T16:40:22.630Z,34.20
2022-08-11T16:43:11.960Z,34.10
2022-08-11T16:45:59.183Z,34.10
2022-08-11T16:48:36.144Z,34.10
2022-08-11T16:51:06.364Z,34.00
2022-08-11T16:53:59.930Z,34.00
2022-08-11T16:56:25.975Z,34.20
2022-08-11T16:59:15.319Z,34.00
2022-08-11T17:01:53.810Z,34.00
2022-08-11T17:04:48.612Z,34.00
2022-08-11T17:07:42.365Z,34.00
2022-08-11T17:10:51.568Z,34.00
2022-08-11T17:13:26.607Z,33.80
2022-08-11T17:16:07.988Z,33.90
2022-08-11T17:18:43.184Z,33.80
2022-08-11T17:21:15.349Z,33.60
2022-08-11T17:23:49.772Z,33.60
2022-08-11T17:26:24.015Z,33.70
2022-08-11T17:28:57.595Z,33.60
2022-08-11T17:31:57.477Z,33.50
2022-08-11T17:34:43.352Z,33.50
2022-08-11T17:37:12.182Z,33.40
2022-08-11T17:39:40.962Z,33.40
2022-08-11T17:42:27.245Z,33.30
2022-08-11T17:45:13.610Z,33.20
2022-08-11T17:48:01.025Z,33.00
2022-08-11T17:50:29.501Z,33.00
2022-08-11T17:53:15.397Z,32.90
2022-08-11T17:56:01.404Z,33.00
2022-08-11T17:58:47.013Z,32.90
2022-08-11T18:01:16.646Z,32.90
2022-08-11T18:03:57.321Z,32.70
2022-08-11T18:06:34.069Z,32.60
2022-08-11T18:09:23.249Z,32.60
2022-08-11T18:12:12.804Z,32.50
2022-08-11T18:15:00.673Z,32.40
2022-08-11T18:17:46.157Z,32.30
2022-08-11T18:20:33.120Z,32.30
2022-08-11T18:23:40.550Z,32.30
2022-08-11T18:26:30.468Z,32.00
2022-08-11T18:29:16.452Z,32.00
2022-08-11T18:32:09.818Z,31.90
2022-08-11T18:34:59.683Z,31.70
2022-08-11T18:37:52.628Z,31.60
2022-08-11T18:40:42.561Z,31.50
2022-08-11T18:43:30.978Z,31.40
2022-08-11T18:46:19.963Z,31.20
2022-08-11T18:49:15.383Z,31.20
2022-08-11T18:52:05.387Z,31.00
2022-08-11T18:54:55.222Z,30.60
2022-08-11T18:57:49.765Z,30.40
2022-08-11T19:00:40.771Z,30.30
2022-08-11T19:03:28.627Z,29.90
2022-08-11T19:06:39.902Z,29.60
2022-08-11T19:09:27.065Z,29.30
2022-08-11T19:12:14.824Z,29.00
2022-08-11T19:15:01.276Z,28.90
2022-08-11T19:17:48.886Z,28.70
2022-08-11T19:20:37.998Z,28.50
2022-08-11T19:23:26.063Z,28.70
2022-08-11T19:26:12.104Z,28.50
2022-08-11T19:29:01.352Z,28.30
2022-08-11T19:31:48.447Z,28.00
2022-08-11T19:34:36.808Z,27.80
2022-08-11T19:37:25.051Z,27.70
2022-08-11T19:40:12.112Z,27.80
2022-08-11T19:42:58.821Z,27.60
2022-08-11T19:45:50.520Z,27.50
2022-08-11T19:48:40.489Z,27.40
2022-08-11T19:51:27.539Z,27.20
2022-08-11T19:54:13.712Z,27.40
2022-08-11T19:57:00.156Z,27.30
2022-08-11T19:59:46.176Z,27.20
2022-08-11T20:02:32.935Z,27.10
2022-08-11T20:05:18.943Z,27.10
2022-08-11T20:08:05.050Z,27.20
2022-08-11T20:10:52.061Z,27.10
2022-08-11T20:13:41.632Z,27.20
2022-08-11T20:16:29.476Z,27.20
2022-08-11T20:19:18.489Z,26.90
2022-08-11T20:22:08.289Z,26.90
2022-08-11T20:24:56.577Z,26.90
2022-08-11T20:27:43.331Z,27.00
2022-08-11T20:30:29.780Z,27.00
2022-08-11T20:33:15.812Z,26.70
2022-08-11T20:36:03.428Z,26.90
2022-08-11T20:38:52.106Z,26.90
2022-08-11T20:41:49.177Z,26.70
2022-08-11T20:44:45.846Z,26.80
2022-08-11T20:47:56.276Z,26.80
2022-08-11T20:50:41.118Z,26.70
2022-08-11T20:53:29.780Z,26.70
2022-08-11T20:56:18.227Z,26.60
2022-08-11T20:59:18.309Z,26.60
2022-08-11T21:02:05.276Z,26.60
2022-08-11T21:04:56.982Z,26.30
2022-08-11T21:07:56.778Z,26.20
2022-08-11T21:10:50.526Z,26.00
2022-08-11T21:13:39.086Z,26.10
2022-08-11T21:16:27.502Z,26.20
2022-08-11T21:19:19.234Z,26.20
2022-08-11T21:22:27.994Z,26.10
2022-08-11T21:25:17.305Z,26.10
2022-08-11T21:28:07.277Z,26.10
2022-08-11T21:30:57.799Z,26.10
2022-08-11T21:33:45.895Z,26.10
2022-08-11T21:36:33.131Z,26.00
2022-08-11T21:39:22.849Z,25.90
2022-08-11T21:42:11.206Z,25.70
2022-08-11T21:44:59.732Z,25.60
2022-08-11T21:47:45.825Z,25.60
2022-08-11T21:50:31.316Z,25.40
2022-08-11T21:53:17.923Z,25.50
2022-08-11T21:56:04.047Z,25.20
2022-08-11T21:58:49.617Z,25.10
2022-08-11T22:01:37.602Z,24.90
2022-08-11T22:04:24.217Z,24.80
2022-08-11T22:07:10.293Z,24.70
2022-08-11T22:09:55.857Z,24.80
2022-08-11T22:12:45.005Z,24.70
2022-08-11T22:15:31.062Z,24.70
2022-08-11T22:18:19.377Z,24.60
2022-08-11T22:21:05.037Z,24.50
2022-08-11T22:23:55.139Z,24.60
2022-08-11T22:26:41.882Z,24.50
2022-08-11T22:29:38.085Z,24.60
2022-08-11T22:32:36.347Z,24.40
2022-08-11T22:35:24.498Z,24.50
2022-08-11T22:38:16.063Z,24.40
2022-08-11T22:41:01.539Z,24.40
2022-08-11T22:43:47.595Z,24.30
2022-08-11T22:46:34.263Z,24.20
2022-08-11T22:49:21.249Z,24.30
2022-08-11T22:52:08.987Z,24.20
2022-08-11T22:54:55.441Z,24.20
2022-08-11T22:58:00.176Z,24.10
2022-08-11T23:00:47.342Z,24.10
2022-08-11T23:03:37.155Z,24.00
2022-08-11T23:06:24.282Z,24.10
2022-08-11T23:09:12.111Z,24.00
2022-08-11T23:12:07.906Z,23.90
2022-08-11T23:14:57.249Z,23.90
2022-08-11T23:17:43.938Z,23.90
2022-08-11T23:20:36.211Z,23.90
2022-08-11T23:23:34.210Z,23.80
2022-08-11T23:26:21.935Z,23.80
2022-08-11T23:29:07.525Z,23.80
2022-08-11T23:31:54.259Z,23.80
2022-08-11T23:35:04.113Z,23.70
2022-08-11T23:37:47.869Z,23.70
2022-08-11T23:40:33.383Z,23.70
2022-08-11T23:43:20.683Z,23.60
2022-08-11T23:46:06.235Z,23.60
2022-08-11T23:48:52.328Z,23.50
2022-08-11T23:51:40.629Z,23.50
2022-08-11T23:54:27.250Z,23.40
2022-08-11T23:57:13.950Z,23.40
